Gold Coast Airport Weather forecast (YBCG – OOL)

METAR

METAR YBCG 230130Z AUTO 12010KT 9999 // NCD 25/16 Q1016 RMK RF00.0/000.0

TAF

TAF YBCG 222321Z 2300/2324 12012KT 9999 FEW035 FM231000 20005KT 9999 SCT025 FM232200 14010KT 9999 FEW035 RMK T 23 24 23 21 Q 1017 1016 1014 1016

QNH (YBCG) Gold Coast

1016

Temperature & Dew Point

25° DP16